Time;durP1;ratioP1;P1;durP2;ratioP2;P2;SDS_P1;SDS_P2;PMS_P1;PMS_P2;Temp;Humidity;BMP_temperature;BMP_pressure;BME280_temperature;BME280_humidity;BME280_pressure;Samples;Min_cycle;Max_cycle;Signal;HPM_P1;HPM_P2
2021/01/26 00:01:06;;;;;;;4.75;3.27;;;;;;;0.18;70.37;99876.22;1800228;78;26330;-56
2021/01/26 00:03:35;;;;;;;4.42;3.02;;;;;;;0.13;70.59;99876.50;1770992;78;26816;-56
2021/01/26 00:06:04;;;;;;;6.62;4.00;;;;;;;0.12;70.75;99887.53;1769016;79;26534;-56
2021/01/26 00:08:33;;;;;;;6.05;3.92;;;;;;;0.10;70.59;99892.53;1768618;81;25689;-56
2021/01/26 00:11:03;;;;;;;6.65;3.77;;;;;;;0.11;70.92;99891.11;1776764;79;26506;-56
2021/01/26 00:13:34;;;;;;;8.18;4.95;;;;;;;0.13;71.08;99898.98;1800373;79;25659;-57
2021/01/26 00:16:03;;;;;;;8.13;4.67;;;;;;;0.14;71.29;99892.72;1800272;79;27467;-56
2021/01/26 00:18:32;;;;;;;6.28;4.20;;;;;;;0.15;71.46;99900.58;1798731;79;26148;-57
2021/01/26 00:21:00;;;;;;;16.10;6.20;;;;;;;0.15;71.50;99903.68;1768989;79;25504;-56
2021/01/26 00:23:29;;;;;;;10.68;6.40;;;;;;;0.11;71.21;99918.88;1768930;79;26896;-56
2021/01/26 00:25:57;;;;;;;9.40;4.95;;;;;;;0.10;71.13;99925.11;1788248;78;26166;-56
2021/01/26 00:28:25;;;;;;;8.30;5.33;;;;;;;0.10;71.03;99940.98;1768763;81;27528;-56
2021/01/26 00:30:54;;;;;;;9.70;4.78;;;;;;;0.10;71.06;99948.91;1768941;79;25725;-56
2021/01/26 00:33:23;;;;;;;8.88;5.33;;;;;;;0.12;71.03;99960.75;1768762;79;25656;-56
2021/01/26 00:35:53;;;;;;;16.42;6.65;;;;;;;0.09;71.08;99967.52;1768604;81;25556;-56
2021/01/26 00:38:22;;;;;;;13.62;5.80;;;;;;;0.07;71.49;99965.44;1796893;79;26181;-56
2021/01/26 00:40:50;;;;;;;14.23;6.35;;;;;;;0.08;71.66;99968.47;1779522;79;27526;-56
2021/01/26 00:43:18;;;;;;;14.23;7.20;;;;;;;0.08;71.78;99964.50;1768636;79;26030;-56
2021/01/26 00:45:49;;;;;;;8.25;5.70;;;;;;;0.12;71.95;99973.97;1738018;81;25532;-56
2021/01/26 00:48:17;;;;;;;10.08;5.97;;;;;;;0.14;71.69;99983.97;1772285;79;26289;-56
2021/01/26 00:50:46;;;;;;;9.35;5.33;;;;;;;0.14;71.74;99982.64;1768777;81;26164;-56
2021/01/26 00:53:15;;;;;;;9.23;5.78;;;;;;;0.08;71.42;99983.02;1768809;79;28349;-56
2021/01/26 00:55:46;;;;;;;9.40;5.35;;;;;;;0.05;71.43;99984.50;1763449;80;25660;-56
2021/01/26 00:58:16;;;;;;;12.65;6.28;;;;;;;0.04;71.46;99982.82;1762802;79;26150;-56
2021/01/26 01:00:45;;;;;;;10.38;5.95;;;;;;;-0.02;71.21;99982.22;1762917;79;25751;-56
2021/01/26 01:03:16;;;;;;;13.78;7.55;;;;;;;-0.07;71.33;99975.48;1772329;79;25864;-56
2021/01/26 01:05:45;;;;;;;16.52;8.10;;;;;;;-0.16;71.55;99971.59;1780237;79;27469;-56
2021/01/26 01:08:13;;;;;;;11.85;6.67;;;;;;;-0.21;71.79;99966.56;1778670;79;26089;-56
2021/01/26 01:10:42;;;;;;;11.75;6.58;;;;;;;-0.23;71.72;99962.30;1762715;79;26092;-56
2021/01/26 01:13:12;;;;;;;9.38;5.92;;;;;;;-0.25;72.00;99960.21;1788244;79;25822;-56
2021/01/26 01:15:40;;;;;;;11.73;6.05;;;;;;;-0.29;72.20;99966.14;1781877;79;25464;-56
2021/01/26 01:18:10;;;;;;;11.97;6.20;;;;;;;-0.29;72.40;99970.11;1763857;81;27535;-56
2021/01/26 01:20:39;;;;;;;9.53;6.12;;;;;;;-0.25;72.54;99985.33;1809030;78;25685;-56
2021/01/26 01:23:09;;;;;;;9.53;6.17;;;;;;;-0.26;72.19;99991.06;1791517;79;25688;-56
2021/01/26 01:25:37;;;;;;;11.40;6.15;;;;;;;-0.26;72.11;100005.59;1793551;79;25751;-56
2021/01/26 01:28:06;;;;;;;13.80;7.03;;;;;;;-0.23;72.17;100012.53;1793563;79;25968;-56
2021/01/26 01:30:35;;;;;;;13.35;7.35;;;;;;;-0.27;72.38;100018.42;1767228;79;26699;-56
2021/01/26 01:33:06;;;;;;;10.75;6.25;;;;;;;-0.28;72.23;100030.42;1762155;81;25679;-56
2021/01/26 01:35:35;;;;;;;12.40;7.08;;;;;;;-0.28;72.31;100027.78;1762355;81;25446;-56
2021/01/26 01:38:05;;;;;;;10.05;6.28;;;;;;;-0.35;72.44;100025.48;1762466;81;25992;-56
2021/01/26 01:40:35;;;;;;;9.53;6.42;;;;;;;-0.37;73.05;100023.87;1762447;80;25623;-56
2021/01/26 01:43:03;;;;;;;8.23;6.00;;;;;;;-0.42;72.66;100021.48;1762247;81;27525;-56
2021/01/26 01:45:31;;;;;;;13.78;7.42;;;;;;;-0.39;72.91;100028.38;1762366;80;25747;-56
2021/01/26 01:48:11;;;;;;;11.30;6.87;;;;;;;-0.37;73.11;100031.80;1735222;82;25636;-56
2021/01/26 01:50:51;;;;;;;10.95;6.35;;;;;;;-0.36;73.05;100029.55;1777265;80;25825;-56
2021/01/26 01:53:36;;;;;;;10.30;6.40;;;;;;;-0.36;73.02;100029.06;1762585;80;26563;-56
2021/01/26 01:56:08;;;;;;;13.28;6.65;;;;;;;-0.35;73.08;100032.54;1802566;78;27712;-56
2021/01/26 01:58:41;;;;;;;14.75;6.65;;;;;;;-0.36;73.18;100033.02;1748659;81;25730;-56
2021/01/26 02:01:13;;;;;;;12.05;6.47;;;;;;;-0.34;73.17;100032.48;1829562;78;25429;-56
2021/01/26 02:03:52;;;;;;;10.08;6.72;;;;;;;-0.30;73.30;100036.25;1748573;82;25701;-56
2021/01/26 02:06:24;;;;;;;9.65;6.90;;;;;;;-0.28;73.18;100035.70;1786881;79;25732;-56
2021/01/26 02:09:21;;;;;;;11.50;6.75;;;;;;;-0.26;73.28;100031.19;1800550;79;26707;-56
2021/01/26 02:11:50;;;;;;;9.78;6.22;;;;;;;-0.26;73.26;100033.84;1732493;82;25607;-56
2021/01/26 02:14:19;;;;;;;10.15;6.58;;;;;;;-0.24;73.23;100041.22;1801811;79;25433;-56
2021/01/26 02:17:04;;;;;;;12.75;6.87;;;;;;;-0.23;73.33;100042.93;1802456;79;25689;-56
2021/01/26 02:20:28;;;;;;;9.05;5.53;;;;;;;-0.22;72.89;100032.71;1802226;79;25662;-56
2021/01/26 02:23:26;;;;;;;11.03;6.25;;;;;;;-0.18;73.00;100031.13;1802479;79;27414;-56
2021/01/26 02:26:31;;;;;;;9.75;6.35;;;;;;;-0.18;72.94;100031.13;1781842;79;25677;-56
2021/01/26 02:29:12;;;;;;;10.13;6.90;;;;;;;-0.25;72.76;100036.87;1770685;80;25700;-57
2021/01/26 02:32:18;;;;;;;12.50;6.70;;;;;;;-0.36;72.74;100037.47;1770179;81;26232;-57
2021/01/26 02:35:12;;;;;;;9.95;6.83;;;;;;;-0.38;73.14;100032.25;1770677;81;25700;-56
2021/01/26 02:38:08;;;;;;;10.43;6.90;;;;;;;-0.35;73.39;100040.02;1771004;81;27519;-56
2021/01/26 02:40:48;;;;;;;10.63;6.37;;;;;;;-0.30;73.77;100041.53;1770588;80;25641;-57
2021/01/26 02:43:31;;;;;;;12.90;7.53;;;;;;;-0.21;74.09;100039.25;1770403;81;25702;-54
2021/01/26 02:46:39;;;;;;;10.43;6.62;;;;;;;-0.24;73.44;100038.58;1770812;80;25529;-56
2021/01/26 02:49:30;;;;;;;13.53;6.67;;;;;;;-0.26;73.51;100041.77;1770678;81;25682;-56
2021/01/26 02:52:15;;;;;;;10.20;5.92;;;;;;;-0.25;73.46;100043.48;1752524;81;27532;-56
2021/01/26 02:55:14;;;;;;;9.25;6.25;;;;;;;-0.24;73.48;100043.86;1770632;80;26087;-56
2021/01/26 02:58:05;;;;;;;11.73;6.35;;;;;;;-0.30;73.02;100047.69;1770606;81;26191;-56
2021/01/26 03:00:36;;;;;;;9.48;5.87;;;;;;;-0.28;73.34;100035.70;1770763;81;25608;-57
2021/01/26 03:03:10;;;;;;;8.78;6.15;;;;;;;-0.36;73.21;100030.86;1770775;81;25759;-57
2021/01/26 03:05:46;;;;;;;10.15;5.45;;;;;;;-0.39;73.38;100027.05;1770745;79;28489;-56
2021/01/26 03:08:22;;;;;;;11.38;6.37;;;;;;;-0.43;73.40;100021.54;1770402;80;26386;-57
2021/01/26 03:11:01;;;;;;;9.15;5.35;;;;;;;-0.39;73.50;100033.18;1731811;81;26077;-57
2021/01/26 03:13:32;;;;;;;11.73;5.22;;;;;;;-0.41;73.52;100032.89;1770636;81;25761;-57
2021/01/26 03:16:12;;;;;;;9.40;5.17;;;;;;;-0.39;73.45;100028.38;1770539;80;25562;-56
2021/01/26 03:18:48;;;;;;;7.12;4.85;;;;;;;-0.41;73.56;100015.26;1770597;80;27788;-56
2021/01/26 03:21:27;;;;;;;8.30;5.30;;;;;;;-0.43;73.38;100001.27;1770738;81;25707;-56
2021/01/26 03:24:01;;;;;;;7.87;5.10;;;;;;;-0.49;73.15;100001.59;1770753;81;25642;-56
2021/01/26 03:26:29;;;;;;;13.65;5.37;;;;;;;-0.50;73.54;100006.52;1770644;81;25777;-57
2021/01/26 03:29:01;;;;;;;7.17;4.90;;;;;;;-0.49;73.75;100015.67;1770574;81;26111;-57
2021/01/26 03:31:34;;;;;;;7.05;4.60;;;;;;;-0.48;73.85;100042.93;1770406;80;27614;-56
2021/01/26 03:34:02;;;;;;;6.78;5.12;;;;;;;-0.43;73.98;100070.42;1770578;81;25899;-57
2021/01/26 03:36:30;;;;;;;7.70;4.70;;;;;;;-0.36;74.07;100072.66;1770706;80;25502;-57
2021/01/26 03:39:01;;;;;;;7.42;4.80;;;;;;;-0.33;73.83;100072.96;1770634;81;25677;-57
2021/01/26 03:41:30;;;;;;;6.80;4.83;;;;;;;-0.36;73.65;100075.31;1795641;79;25613;-57
2021/01/26 03:44:00;;;;;;;7.40;4.05;;;;;;;-0.37;73.46;100082.01;1790219;79;26841;-56
2021/01/26 03:46:50;;;;;;;6.12;4.40;;;;;;;-0.37;73.56;100070.12;1802245;79;25607;-56
2021/01/26 03:49:59;;;;;;;5.60;4.42;;;;;;;-0.32;73.91;100066.74;1802334;79;25643;-56
2021/01/26 03:53:04;;;;;;;5.47;3.92;;;;;;;-0.25;74.10;100058.85;1802296;79;25751;-55
2021/01/26 03:56:07;;;;;;;7.55;4.30;;;;;;;-0.19;74.13;100065.14;1801692;79;25512;-56
2021/01/26 03:59:01;;;;;;;8.28;6.28;;;;;;;-0.14;74.05;100069.31;1793949;79;27626;-57
2021/01/26 04:01:43;;;;;;;8.63;4.70;;;;;;;-0.10;73.96;100076.98;1794011;79;25589;-57
2021/01/26 04:05:02;;;;;;;8.05;4.03;;;;;;;-0.05;73.88;100085.53;1793932;79;25661;-55
2021/01/26 04:07:45;;;;;;;5.35;4.45;;;;;;;-0.05;73.90;100089.50;1793781;79;26337;-57
2021/01/26 04:10:21;;;;;;;8.55;4.20;;;;;;;-0.04;73.78;100088.53;1793924;79;25726;-57
2021/01/26 04:12:59;;;;;;;6.83;4.90;;;;;;;-0.03;73.81;100087.60;1792164;79;27541;-56
2021/01/26 04:15:48;;;;;;;5.92;4.53;;;;;;;-0.01;73.74;100088.37;1741400;81;25784;-55
2021/01/26 04:18:20;;;;;;;7.67;4.28;;;;;;;-0.01;73.80;100096.31;1762508;81;25577;-55
2021/01/26 04:20:50;;;;;;;9.10;4.83;;;;;;;-0.04;73.53;100103.08;1762657;81;27025;-56
2021/01/26 04:23:20;;;;;;;10.72;6.37;;;;;;;-0.04;73.64;100096.95;1762510;81;25668;-55
2021/01/26 04:25:51;;;;;;;6.15;4.60;;;;;;;0.00;73.81;100098.50;1782452;78;28513;-56
2021/01/26 04:28:38;;;;;;;9.55;4.12;;;;;;;-0.03;73.73;100102.14;1799668;79;26163;-56
2021/01/26 04:31:09;;;;;;;5.42;4.33;;;;;;;-0.01;74.10;100096.80;1799710;79;25678;-55
2021/01/26 04:33:42;;;;;;;11.90;4.80;;;;;;;0.06;74.39;100097.28;1796645;79;26565;-56
2021/01/26 04:36:15;;;;;;;5.97;3.92;;;;;;;0.10;74.26;100092.22;1793968;79;26551;-55
2021/01/26 04:38:43;;;;;;;5.67;4.33;;;;;;;0.13;74.27;100092.05;1793928;79;27524;-55
2021/01/26 04:41:17;;;;;;;7.55;5.33;;;;;;;0.19;74.38;100098.31;1771062;79;25645;-55
2021/01/26 04:44:03;;;;;;;8.90;5.00;;;;;;;0.23;74.34;100114.87;1762367;81;25672;-56
2021/01/26 04:47:03;;;;;;;6.90;3.87;;;;;;;0.21;73.94;100111.45;1761668;81;25727;-56
2021/01/26 04:49:42;;;;;;;5.92;4.30;;;;;;;0.24;74.03;100124.52;1710470;83;25737;-57
2021/01/26 04:52:30;;;;;;;6.25;3.98;;;;;;;0.22;73.70;100119.31;1704972;83;27519;-57
2021/01/26 04:55:12;;;;;;;6.50;4.65;;;;;;;0.28;73.83;100117.64;1761914;81;25619;-57
2021/01/26 04:58:09;;;;;;;8.08;4.92;;;;;;;0.30;73.70;100121.52;1710652;80;25632;-57
2021/01/26 05:01:01;;;;;;;9.03;5.72;;;;;;;0.30;73.75;100120.19;1681322;84;25667;-57
2021/01/26 05:03:59;;;;;;;12.53;4.85;;;;;;;0.29;73.89;100117.16;1705634;84;25720;-56
2021/01/26 05:06:43;;;;;;;7.62;5.33;;;;;;;0.30;73.76;100121.52;1831498;78;25526;-56
2021/01/26 05:09:15;;;;;;;12.20;7.75;;;;;;;0.22;73.79;100123.28;1804082;79;25705;-57
2021/01/26 05:11:45;;;;;;;12.60;6.87;;;;;;;0.24;74.14;100116.09;1737965;81;27481;-57
2021/01/26 05:14:27;;;;;;;8.25;5.85;;;;;;;0.31;74.30;100124.55;1752732;80;25692;-57
2021/01/26 05:17:11;;;;;;;9.68;5.40;;;;;;;0.38;74.62;100129.03;1721661;83;26020;-57
2021/01/26 05:19:51;;;;;;;;;;;;;;;0.41;74.49;100134.12;1710006;84;25729;-56
2021/01/26 05:22:39;;;;;;;9.25;4.90;;;;;;;0.41;74.38;100141.61;1687295;85;26242;-57
2021/01/26 05:25:16;;;;;;;7.85;5.42;;;;;;;0.49;74.58;100146.94;1736780;82;27762;-56
2021/01/26 05:27:44;;;;;;;9.95;5.15;;;;;;;0.50;74.00;100156.59;1721239;83;25638;-56
2021/01/26 05:30:18;;;;;;;8.90;6.05;;;;;;;0.44;73.96;100174.98;1721445;83;25771;-56
2021/01/26 05:32:47;;;;;;;7.95;6.22;;;;;;;0.39;73.52;100179.20;1711285;83;25461;-56
2021/01/26 05:35:17;;;;;;;10.40;5.40;;;;;;;0.35;73.60;100189.59;1721552;83;26321;-56
2021/01/26 05:37:49;;;;;;;10.50;5.12;;;;;;;0.36;73.84;100189.95;1711371;83;27537;-57
2021/01/26 05:40:25;;;;;;;10.05;5.87;;;;;;;0.40;74.02;100202.58;1687665;83;26151;-56
2021/01/26 05:42:59;;;;;;;9.05;4.90;;;;;;;0.41;74.07;100194.54;1765772;81;25473;-56
2021/01/26 05:45:34;;;;;;;12.18;5.42;;;;;;;0.42;74.14;100196.25;1734751;82;25698;-56
2021/01/26 05:48:11;;;;;;;12.25;5.58;;;;;;;0.43;74.13;100199.73;1734679;82;25644;-56
2021/01/26 05:50:42;;;;;;;15.60;5.75;;;;;;;0.50;74.51;100211.68;1746756;82;28670;-56
2021/01/26 05:53:25;;;;;;;9.10;4.97;;;;;;;0.56;74.74;100214.01;1738498;81;26286;-56
2021/01/26 05:56:08;;;;;;;8.13;5.50;;;;;;;0.64;74.64;100212.72;1731464;82;25624;-56
2021/01/26 05:58:29;;;;;;;7.45;4.72;;;;;;;0.68;74.58;100215.11;1729610;82;26179;-55
2021/01/26 06:01:02;;;;;;;5.35;4.35;;;;;;;0.70;74.43;100219.85;1738702;80;25530;-56
2021/01/26 06:03:31;;;;;;;7.95;4.80;;;;;;;0.67;74.10;100216.53;1727137;81;28473;-56
2021/01/26 06:06:10;;;;;;;5.08;4.20;;;;;;;0.62;73.80;100211.01;1726625;82;25644;-56
2021/01/26 06:08:57;;;;;;;5.87;4.40;;;;;;;0.56;73.45;100210.48;1730915;82;25708;-56
2021/01/26 06:11:31;;;;;;;8.43;4.58;;;;;;;0.50;73.37;100220.95;1762936;81;25640;-56
2021/01/26 06:14:15;;;;;;;7.95;5.90;;;;;;;0.46;73.60;100216.78;1780345;79;25760;-56
2021/01/26 06:16:43;;;;;;;8.10;5.40;;;;;;;0.49;73.90;100217.94;1780554;79;27578;-56
2021/01/26 06:19:15;;;;;;;8.05;5.67;;;;;;;0.55;74.21;100212.30;1779871;78;25503;-56
2021/01/26 06:21:48;;;;;;;9.80;6.10;;;;;;;0.62;74.39;100201.74;1717268;83;25576;-56
2021/01/26 06:24:20;;;;;;;8.13;6.03;;;;;;;0.69;74.38;100195.64;1746224;81;25775;-56
2021/01/26 06:27:10;;;;;;;9.60;5.25;;;;;;;0.75;74.33;100207.67;1720006;82;26254;-56
2021/01/26 06:29:46;;;;;;;6.80;5.20;;;;;;;0.81;74.23;100202.51;1745241;81;27487;-56
2021/01/26 06:32:22;;;;;;;8.20;5.53;;;;;;;0.86;74.15;100209.70;1754403;81;25734;-56
2021/01/26 06:35:11;;;;;;;6.35;5.12;;;;;;;0.90;74.22;100215.19;1724383;83;26327;-56
2021/01/26 06:38:05;;;;;;;8.38;5.20;;;;;;;0.91;73.98;100217.77;1732992;82;25696;-56
2021/01/26 06:41:17;;;;;;;7.40;4.95;;;;;;;0.89;72.88;100233.37;1696729;83;26030;-57
2021/01/26 06:44:11;;;;;;;10.15;6.15;;;;;;;0.83;73.19;100241.64;1705580;84;27628;-57
2021/01/26 06:47:09;;;;;;;7.62;5.47;;;;;;;0.83;73.10;100253.11;1709680;82;25745;-57
2021/01/26 06:50:06;;;;;;;8.95;5.22;;;;;;;0.81;73.27;100264.73;1721550;82;25633;-56
2021/01/26 06:53:08;;;;;;;7.00;5.00;;;;;;;0.85;73.50;100271.06;1717504;82;25708;-56
2021/01/26 06:55:58;;;;;;;6.97;4.85;;;;;;;0.90;73.68;100276.97;1684436;82;25784;-56
2021/01/26 06:59:00;;;;;;;7.65;4.90;;;;;;;0.97;73.85;100276.17;1781263;79;28958;-56
2021/01/26 07:02:14;;;;;;;8.33;5.47;;;;;;;1.04;73.74;100272.22;1789331;79;26075;-57
2021/01/26 07:05:09;;;;;;;8.28;5.62;;;;;;;1.07;73.67;100269.41;1723788;83;27786;-55
2021/01/26 07:08:03;;;;;;;6.22;4.50;;;;;;;1.17;73.83;100265.75;1742254;81;25737;-57
2021/01/26 07:11:27;;;;;;;10.35;5.22;;;;;;;1.26;73.73;100259.05;1724484;83;26195;-55
2021/01/26 07:14:16;;;;;;;7.58;5.72;;;;;;;1.29;73.59;100262.86;1725171;83;27553;-57
2021/01/26 07:17:00;;;;;;;10.70;6.08;;;;;;;1.29;73.27;100265.99;1735013;82;25435;-57
2021/01/26 07:20:16;;;;;;;6.35;5.15;;;;;;;1.30;73.14;100258.42;1735116;82;25700;-57
2021/01/26 07:22:55;;;;;;;9.65;5.28;;;;;;;1.32;72.98;100260.49;1780662;79;25802;-56
2021/01/26 07:25:28;;;;;;;10.80;5.33;;;;;;;1.35;73.06;100269.11;1698577;83;25776;-55
2021/01/26 07:28:23;;;;;;;10.65;5.72;;;;;;;1.40;73.27;100271.50;1746691;81;27466;-56
2021/01/26 07:31:11;;;;;;;16.07;7.03;;;;;;;1.43;73.38;100282.42;1741279;82;25640;-57
2021/01/26 07:34:01;;;;;;;14.63;6.92;;;;;;;1.47;73.56;100295.41;1749295;81;25728;-57
2021/01/26 07:36:46;;;;;;;10.03;5.80;;;;;;;1.54;73.74;100303.38;1729596;82;25706;-57
2021/01/26 07:39:29;;;;;;;9.38;6.30;;;;;;;1.65;74.04;100320.45;1741129;82;26225;-57
2021/01/26 07:42:15;;;;;;;11.05;7.35;;;;;;;1.75;73.84;100318.11;1701878;83;28522;-57
2021/01/26 07:45:09;;;;;;;12.85;8.70;;;;;;;1.79;73.73;100323.14;1713163;83;26197;-57
2021/01/26 07:47:45;;;;;;;35.95;20.55;;;;;;;1.85;73.57;100321.44;1762230;81;26407;-57
2021/01/26 07:50:36;;;;;;;33.65;18.92;;;;;;;1.88;73.46;100318.61;1782335;78;25656;-57
2021/01/26 07:53:37;;;;;;;33.85;19.57;;;;;;;1.90;73.15;100317.67;1799674;79;25678;-57
2021/01/26 07:56:23;;;;;;;24.82;12.03;;;;;;;1.91;73.02;100314.91;1799456;79;27969;-57
2021/01/26 07:58:52;;;;;;;20.80;11.90;;;;;;;1.93;72.93;100322.31;1799711;79;26149;-57
2021/01/26 08:01:25;;;;;;;29.27;13.45;;;;;;;1.95;72.82;100326.19;1799770;79;25497;-55
2021/01/26 08:04:02;;;;;;;21.30;11.97;;;;;;;1.98;72.89;100327.34;1799725;79;26617;-55
2021/01/26 08:06:42;;;;;;;23.00;13.48;;;;;;;2.06;73.00;100333.05;1777583;79;25660;-55
2021/01/26 08:09:19;;;;;;;56.05;27.70;;;;;;;2.16;73.10;100332.00;1773510;80;26764;-55
2021/01/26 08:11:58;;;;;;;38.60;20.72;;;;;;;2.26;73.07;100336.30;1773214;80;25629;-55
2021/01/26 08:14:34;;;;;;;33.00;14.80;;;;;;;2.36;73.04;100334.80;1772977;79;25454;-55
2021/01/26 08:17:07;;;;;;;35.55;19.32;;;;;;;2.45;72.92;100337.34;1773614;80;25671;-54
2021/01/26 08:19:40;;;;;;;33.40;17.80;;;;;;;2.56;73.00;100343.30;1773906;80;25458;-55
2021/01/26 08:22:33;;;;;;;35.78;17.70;;;;;;;2.60;72.59;100348.81;1773960;80;27534;-54
2021/01/26 08:25:16;;;;;;;46.48;23.05;;;;;;;2.68;72.67;100350.52;1807575;78;25712;-55
2021/01/26 08:27:50;;;;;;;39.85;20.15;;;;;;;2.77;72.52;100343.80;1807779;78;25789;-56
2021/01/26 08:30:48;;;;;;;41.28;21.82;;;;;;;2.84;72.10;100345.56;1815018;78;25720;-55
2021/01/26 08:33:27;;;;;;;35.38;17.40;;;;;;;2.83;71.76;100346.05;1798616;78;25661;-55
2021/01/26 08:36:11;;;;;;;36.33;19.25;;;;;;;2.84;71.58;100341.58;1786310;79;27526;-55
2021/01/26 08:39:04;;;;;;;35.60;18.95;;;;;;;2.80;71.24;100337.80;1786555;79;25757;-56
2021/01/26 08:41:48;;;;;;;43.50;23.35;;;;;;;2.81;71.13;100332.00;1773575;80;25660;-55
2021/01/26 08:44:26;;;;;;;46.25;23.20;;;;;;;2.80;71.09;100340.47;1773446;80;25711;-56
2021/01/26 08:46:56;;;;;;;63.68;33.50;;;;;;;2.82;71.08;100364.27;1796817;78;25729;-56
2021/01/26 08:49:34;;;;;;;71.87;37.50;;;;;;;2.82;70.96;100363.78;1806031;78;28451;-55
2021/01/26 08:52:25;;;;;;;65.00;32.40;;;;;;;2.83;70.89;100369.96;1805545;79;25706;-56
2021/01/26 08:54:59;;;;;;;52.17;27.42;;;;;;;2.87;70.89;100371.45;1805952;79;25603;-56
2021/01/26 08:57:33;;;;;;;46.40;22.05;;;;;;;2.93;71.00;100360.92;1805474;79;25732;-56
2021/01/26 09:00:19;;;;;;;34.48;18.42;;;;;;;2.97;71.04;100355.81;1805910;79;25673;-56
2021/01/26 09:02:50;;;;;;;39.53;19.80;;;;;;;2.98;70.91;100365.00;1805859;79;27525;-56
2021/01/26 09:05:43;;;;;;;40.95;20.17;;;;;;;2.97;70.56;100370.42;1797425;79;26146;-56
2021/01/26 09:08:11;;;;;;;35.45;19.50;;;;;;;2.98;70.59;100370.80;1729470;82;25654;-56
2021/01/26 09:10:49;;;;;;;42.03;20.70;;;;;;;3.02;70.41;100363.48;1768764;80;25646;-56
2021/01/26 09:13:32;;;;;;;47.15;24.07;;;;;;;3.07;70.44;100361.38;1815842;78;25871;-56
2021/01/26 09:16:06;;;;;;;54.23;25.50;;;;;;;3.18;70.76;100360.22;1786025;78;27535;-56
2021/01/26 09:18:36;;;;;;;40.10;21.73;;;;;;;3.26;70.37;100361.07;1799513;78;26094;-55
2021/01/26 09:21:10;;;;;;;31.87;15.23;;;;;;;3.36;69.99;100362.64;1789317;79;25726;-56
2021/01/26 09:23:41;;;;;;;24.50;11.30;;;;;;;3.42;69.64;100367.09;1776195;79;25692;-56
2021/01/26 09:26:15;;;;;;;19.57;10.48;;;;;;;3.45;69.02;100364.70;1768830;79;25629;-57
2021/01/26 09:28:48;;;;;;;16.55;9.30;;;;;;;3.55;69.08;100363.61;1768673;80;27528;-57
2021/01/26 09:31:23;;;;;;;19.48;9.95;;;;;;;3.60;68.70;100380.97;1768501;81;25654;-57
2021/01/26 09:34:05;;;;;;;23.40;11.43;;;;;;;3.66;68.51;100378.39;1768644;79;25847;-57
2021/01/26 09:36:35;;;;;;;21.30;12.20;;;;;;;3.77;68.70;100385.66;1768505;80;26447;-57
2021/01/26 09:39:11;;;;;;;21.82;13.20;;;;;;;3.90;68.46;100387.89;1768586;81;25748;-57
2021/01/26 09:41:39;;;;;;;19.30;10.80;;;;;;;4.04;68.52;100396.28;1797296;79;28516;-57
2021/01/26 09:44:15;;;;;;;19.57;11.78;;;;;;;4.17;67.98;100404.78;1800135;78;25737;-57
2021/01/26 09:46:48;;;;;;;21.35;11.22;;;;;;;4.25;67.75;100407.77;1797554;79;25486;-55
2021/01/26 09:49:29;;;;;;;25.30;14.47;;;;;;;4.35;67.23;100403.49;1799898;79;25690;-57
2021/01/26 09:52:10;;;;;;;19.77;11.55;;;;;;;4.42;67.12;100406.59;1800189;79;25773;-56
2021/01/26 09:54:41;;;;;;;18.25;10.68;;;;;;;4.49;66.01;100416.36;1808951;78;27601;-57
2021/01/26 09:57:16;;;;;;;20.35;11.53;;;;;;;4.49;66.37;100410.53;1832728;77;25704;-57
2021/01/26 09:59:45;;;;;;;18.55;10.63;;;;;;;4.52;64.86;100410.83;1833116;78;25586;-57
2021/01/26 10:02:17;;;;;;;18.60;11.00;;;;;;;4.54;65.90;100413.75;1833377;77;25693;-57
2021/01/26 10:04:47;;;;;;;19.60;11.65;;;;;;;4.62;65.79;100411.88;1749162;82;25754;-56
2021/01/26 10:07:18;;;;;;;20.25;11.78;;;;;;;4.70;65.90;100418.02;1767232;79;27531;-57
2021/01/26 10:09:47;;;;;;;19.37;10.25;;;;;;;4.79;65.68;100418.70;1768750;81;25492;-56
2021/01/26 10:12:37;;;;;;;20.75;11.30;;;;;;;4.86;65.28;100415.97;1783480;79;25682;-57
2021/01/26 10:15:27;;;;;;;21.68;12.18;;;;;;;4.95;65.11;100418.48;1797918;79;25770;-57
2021/01/26 10:18:15;;;;;;;16.90;10.23;;;;;;;5.04;64.28;100413.45;1819864;78;25501;-57
2021/01/26 10:20:53;;;;;;;18.50;11.03;;;;;;;5.05;63.82;100420.49;1700192;84;27608;-57
2021/01/26 10:23:34;;;;;;;19.80;11.08;;;;;;;5.09;63.44;100419.30;1768611;81;26154;-57
2021/01/26 10:26:26;;;;;;;19.98;9.93;;;;;;;5.07;62.98;100420.75;1809641;78;25653;-57
2021/01/26 10:29:11;;;;;;;14.43;9.50;;;;;;;5.10;63.24;100431.67;1726213;82;26604;-57
2021/01/26 10:31:50;;;;;;;16.93;11.15;;;;;;;5.15;62.88;100430.88;1759879;81;26278;-56
2021/01/26 10:34:36;;;;;;;19.87;12.23;;;;;;;5.23;62.55;100427.64;1772497;79;28473;-57
2021/01/26 10:37:26;;;;;;;22.85;13.35;;;;;;;5.25;62.56;100423.06;1768725;80;25877;-57
2021/01/26 10:40:19;;;;;;;22.32;11.93;;;;;;;5.32;62.92;100418.98;1768788;80;25604;-56
2021/01/26 10:42:58;;;;;;;20.62;12.63;;;;;;;5.32;61.59;100410.98;1778800;79;25986;-57
2021/01/26 10:45:46;;;;;;;24.18;13.68;;;;;;;5.26;61.62;100418.94;1777635;79;25657;-57
2021/01/26 10:48:23;;;;;;;28.55;15.32;;;;;;;5.29;61.97;100420.06;1794983;79;27527;-57
2021/01/26 10:50:53;;;;;;;23.87;13.38;;;;;;;5.34;61.70;100417.06;1800331;79;25674;-57
2021/01/26 10:53:40;;;;;;;30.52;15.58;;;;;;;5.37;61.58;100426.65;1797494;79;25721;-57
2021/01/26 10:56:09;;;;;;;28.73;14.05;;;;;;;5.41;61.79;100430.31;1768715;81;25698;-57
2021/01/26 10:58:42;;;;;;;30.15;13.10;;;;;;;5.49;61.40;100429.77;1768804;80;25668;-57
2021/01/26 11:01:13;;;;;;;22.80;12.98;;;;;;;5.47;61.39;100427.20;1768843;81;27523;-57
2021/01/26 11:03:41;;;;;;;19.87;10.98;;;;;;;5.52;60.48;100427.36;1768515;81;25709;-57
2021/01/26 11:06:11;;;;;;;22.25;10.63;;;;;;;5.59;58.14;100427.27;1787790;79;25670;-57
2021/01/26 11:08:39;;;;;;;20.60;11.70;;;;;;;5.60;59.25;100424.48;1800132;78;25664;-57
2021/01/26 11:11:12;;;;;;;21.82;11.90;;;;;;;5.62;56.98;100426.56;1791604;79;25702;-57
2021/01/26 11:13:40;;;;;;;16.95;10.58;;;;;;;5.58;56.89;100421.09;1786090;79;27487;-57
2021/01/26 11:16:08;;;;;;;15.80;8.25;;;;;;;5.58;56.86;100424.23;1782701;79;25845;-57
2021/01/26 11:18:38;;;;;;;12.65;7.67;;;;;;;5.58;57.87;100426.44;1745353;81;25717;-57
2021/01/26 11:21:06;;;;;;;13.03;7.20;;;;;;;5.63;56.58;100428.77;1753940;81;25725;-57
2021/01/26 11:23:34;;;;;;;13.20;6.75;;;;;;;5.65;57.83;100429.48;1800427;79;26093;-57
2021/01/26 11:26:03;;;;;;;10.98;6.60;;;;;;;5.66;54.47;100431.19;1796126;79;28019;-57
2021/01/26 11:28:33;;;;;;;12.07;5.87;;;;;;;5.58;53.00;100426.90;1768721;80;25422;-57
2021/01/26 11:31:02;;;;;;;8.68;5.17;;;;;;;5.51;53.89;100425.19;1771744;79;25903;-57
2021/01/26 11:33:31;;;;;;;10.58;5.78;;;;;;;5.46;53.64;100423.31;1790760;78;25739;-57
2021/01/26 11:36:00;;;;;;;15.50;6.08;;;;;;;5.46;53.82;100423.31;1779261;80;25660;-57
2021/01/26 11:38:29;;;;;;;10.72;6.55;;;;;;;5.44;53.38;100424.77;1779226;80;27472;-57
2021/01/26 11:40:59;;;;;;;8.83;5.67;;;;;;;5.36;54.07;100424.48;1772654;79;25614;-57
2021/01/26 11:43:28;;;;;;;10.95;5.42;;;;;;;5.33;54.05;100418.86;1782142;79;25646;-57
2021/01/26 11:45:57;;;;;;;10.98;6.80;;;;;;;5.34;55.28;100417.06;1800243;78;25899;-57
2021/01/26 11:48:25;;;;;;;9.83;5.92;;;;;;;5.39;55.21;100416.23;1798465;79;25830;-57
2021/01/26 11:50:55;;;;;;;13.32;7.30;;;;;;;5.43;55.53;100417.73;1800295;79;27981;-57
2021/01/26 11:53:24;;;;;;;12.20;6.40;;;;;;;5.47;55.72;100424.53;1799995;78;25671;-57
2021/01/26 11:55:52;;;;;;;11.57;6.17;;;;;;;5.53;54.04;100421.06;1800368;79;25652;-57
2021/01/26 11:58:20;;;;;;;9.43;6.15;;;;;;;5.46;52.62;100428.66;1800228;79;25651;-57
2021/01/26 12:00:48;;;;;;;10.98;6.58;;;;;;;5.37;53.38;100428.86;1800384;79;25790;-57
2021/01/26 12:03:17;;;;;;;13.10;6.80;;;;;;;5.35;53.23;100435.23;1800314;79;27237;-57
2021/01/26 12:05:46;;;;;;;9.33;6.10;;;;;;;5.26;53.33;100432.27;1799927;79;25654;-57
2021/01/26 12:08:15;;;;;;;9.98;6.12;;;;;;;5.19;53.84;100441.69;1796040;78;25557;-57
2021/01/26 12:10:44;;;;;;;11.05;6.78;;;;;;;5.17;53.75;100434.27;1793901;79;25599;-57
2021/01/26 12:13:12;;;;;;;12.03;6.15;;;;;;;5.13;53.73;100428.30;1788236;79;25679;-58
2021/01/26 12:15:41;;;;;;;10.15;5.67;;;;;;;5.04;53.88;100422.29;1782933;79;28506;-57